sensor_id;sensor_type;location;lat;lon;timestamp;pressure;altitude;pressure_sealevel;temperature;humidity
73674;BME280;61975;48.660;10.164;2023-06-14T00:00:19;95164.72;;;15.17;46.91
73674;BME280;61975;48.660;10.164;2023-06-14T00:02:45;95153.59;;;15.13;47.40
73674;BME280;61975;48.660;10.164;2023-06-14T00:05:10;95161.72;;;15.04;47.42
73674;BME280;61975;48.660;10.164;2023-06-14T00:07:39;95168.94;;;15.02;47.63
73674;BME280;61975;48.660;10.164;2023-06-14T00:10:08;95162.03;;;14.83;47.75
73674;BME280;61975;48.660;10.164;2023-06-14T00:12:34;95161.25;;;14.83;48.00
73674;BME280;61975;48.660;10.164;2023-06-14T00:15:00;95164.16;;;14.76;48.60
73674;BME280;61975;48.660;10.164;2023-06-14T00:17:29;95164.72;;;14.64;48.21
73674;BME280;61975;48.660;10.164;2023-06-14T00:19:58;95163.00;;;14.73;48.45
73674;BME280;61975;48.660;10.164;2023-06-14T00:22:24;95163.00;;;14.73;48.40
73674;BME280;61975;48.660;10.164;2023-06-14T00:24:56;95163.06;;;14.70;48.48
73674;BME280;61975;48.660;10.164;2023-06-14T00:27:21;95154.34;;;14.64;48.91
73674;BME280;61975;48.660;10.164;2023-06-14T00:29:46;95155.28;;;14.54;48.75
73674;BME280;61975;48.660;10.164;2023-06-14T00:32:12;95153.34;;;14.51;49.04
73674;BME280;61975;48.660;10.164;2023-06-14T00:34:37;95145.41;;;14.46;48.38
73674;BME280;61975;48.660;10.164;2023-06-14T00:37:03;95156.22;;;14.44;48.78
73674;BME280;61975;48.660;10.164;2023-06-14T00:39:28;95157.84;;;14.42;49.45
73674;BME280;61975;48.660;10.164;2023-06-14T00:41:54;95153.22;;;14.32;49.67
73674;BME280;61975;48.660;10.164;2023-06-14T00:44:19;95147.25;;;14.30;48.90
73674;BME280;61975;48.660;10.164;2023-06-14T00:46:45;95154.03;;;14.29;49.33
73674;BME280;61975;48.660;10.164;2023-06-14T00:49:13;95156.09;;;14.21;49.57
73674;BME280;61975;48.660;10.164;2023-06-14T00:51:40;95162.50;;;14.18;50.00
73674;BME280;61975;48.660;10.164;2023-06-14T00:54:06;95158.16;;;14.17;49.21
73674;BME280;61975;48.660;10.164;2023-06-14T00:56:31;95153.81;;;14.13;49.73
73674;BME280;61975;48.660;10.164;2023-06-14T00:58:57;95155.13;;;14.05;49.67
73674;BME280;61975;48.660;10.164;2023-06-14T01:01:23;95158.31;;;14.03;49.82
73674;BME280;61975;48.660;10.164;2023-06-14T01:03:49;95159.97;;;13.97;49.85
73674;BME280;61975;48.660;10.164;2023-06-14T01:06:33;95168.81;;;13.92;50.06
73674;BME280;61975;48.660;10.164;2023-06-14T01:09:37;95165.34;;;13.81;50.76
73674;BME280;61975;48.660;10.164;2023-06-14T01:12:13;95158.56;;;13.82;50.35
73674;BME280;61975;48.660;10.164;2023-06-14T01:14:39;95152.25;;;13.78;50.73
73674;BME280;61975;48.660;10.164;2023-06-14T01:17:07;95152.59;;;13.80;50.39
73674;BME280;61975;48.660;10.164;2023-06-14T01:19:41;95154.25;;;13.74;51.37
73674;BME280;61975;48.660;10.164;2023-06-14T01:22:08;95160.69;;;13.71;50.69
73674;BME280;61975;48.660;10.164;2023-06-14T01:24:33;95165.50;;;13.67;50.84
73674;BME280;61975;48.660;10.164;2023-06-14T01:27:00;95157.16;;;13.63;51.03
73674;BME280;61975;48.660;10.164;2023-06-14T01:29:26;95151.22;;;13.61;51.25
73674;BME280;61975;48.660;10.164;2023-06-14T01:31:53;95152.03;;;13.58;51.06
73674;BME280;61975;48.660;10.164;2023-06-14T01:34:19;95149.28;;;13.55;52.03
73674;BME280;61975;48.660;10.164;2023-06-14T01:36:45;95143.72;;;13.55;51.59
73674;BME280;61975;48.660;10.164;2023-06-14T01:39:14;95147.38;;;13.48;51.99
73674;BME280;61975;48.660;10.164;2023-06-14T01:41:40;95149.84;;;13.39;52.01
73674;BME280;61975;48.660;10.164;2023-06-14T01:44:06;95150.25;;;13.38;52.07
73674;BME280;61975;48.660;10.164;2023-06-14T01:46:32;95150.31;;;13.34;51.97
73674;BME280;61975;48.660;10.164;2023-06-14T01:48:57;95160.66;;;13.34;52.40
73674;BME280;61975;48.660;10.164;2023-06-14T01:51:24;95145.13;;;13.33;52.05
73674;BME280;61975;48.660;10.164;2023-06-14T01:53:49;95158.34;;;13.25;52.34
73674;BME280;61975;48.660;10.164;2023-06-14T01:56:15;95150.38;;;13.27;52.03
73674;BME280;61975;48.660;10.164;2023-06-14T01:58:41;95152.72;;;13.29;52.37
73674;BME280;61975;48.660;10.164;2023-06-14T02:01:06;95153.16;;;13.27;52.60
73674;BME280;61975;48.660;10.164;2023-06-14T02:03:32;95156.72;;;13.28;52.00
73674;BME280;61975;48.660;10.164;2023-06-14T02:05:58;95156.78;;;13.24;52.35
73674;BME280;61975;48.660;10.164;2023-06-14T02:08:23;95151.19;;;13.24;52.40
73674;BME280;61975;48.660;10.164;2023-06-14T02:10:49;95156.03;;;13.17;52.99
73674;BME280;61975;48.660;10.164;2023-06-14T02:13:14;95157.31;;;13.09;52.92
73674;BME280;61975;48.660;10.164;2023-06-14T02:15:40;95152.16;;;13.04;53.13
73674;BME280;61975;48.660;10.164;2023-06-14T02:18:09;95152.97;;;13.01;53.25
73674;BME280;61975;48.660;10.164;2023-06-14T02:20:35;95142.66;;;12.94;53.44
73674;BME280;61975;48.660;10.164;2023-06-14T02:23:01;95152.28;;;12.86;53.21
73674;BME280;61975;48.660;10.164;2023-06-14T02:25:26;95160.25;;;12.84;53.39
73674;BME280;61975;48.660;10.164;2023-06-14T02:27:55;95165.88;;;12.77;53.81
73674;BME280;61975;48.660;10.164;2023-06-14T02:30:21;95151.59;;;12.72;54.26
73674;BME280;61975;48.660;10.164;2023-06-14T02:32:46;95157.59;;;12.67;54.04
73674;BME280;61975;48.660;10.164;2023-06-14T02:35:14;95165.09;;;12.73;54.24
73674;BME280;61975;48.660;10.164;2023-06-14T02:37:40;95153.56;;;12.75;53.95
73674;BME280;61975;48.660;10.164;2023-06-14T02:40:05;95154.75;;;12.74;53.91
73674;BME280;61975;48.660;10.164;2023-06-14T02:42:31;95147.56;;;12.76;54.09
73674;BME280;61975;48.660;10.164;2023-06-14T02:44:57;95151.13;;;12.77;53.92
73674;BME280;61975;48.660;10.164;2023-06-14T02:47:22;95149.16;;;12.77;54.03
73674;BME280;61975;48.660;10.164;2023-06-14T02:49:48;95155.94;;;12.76;53.73
73674;BME280;61975;48.660;10.164;2023-06-14T02:52:13;95153.16;;;12.73;53.80
73674;BME280;61975;48.660;10.164;2023-06-14T02:54:39;95150.41;;;12.69;54.24
73674;BME280;61975;48.660;10.164;2023-06-14T02:57:05;95158.00;;;12.62;54.48
73674;BME280;61975;48.660;10.164;2023-06-14T02:59:33;95161.25;;;12.57;54.43
73674;BME280;61975;48.660;10.164;2023-06-14T03:01:58;95162.88;;;12.51;54.58
73674;BME280;61975;48.660;10.164;2023-06-14T03:04:23;95162.47;;;12.49;54.86
73674;BME280;61975;48.660;10.164;2023-06-14T03:06:51;95161.69;;;12.48;54.77
73674;BME280;61975;48.660;10.164;2023-06-14T03:09:16;95165.28;;;12.42;55.05
73674;BME280;61975;48.660;10.164;2023-06-14T03:11:42;95161.00;;;12.27;55.55
73674;BME280;61975;48.660;10.164;2023-06-14T03:14:07;95157.03;;;12.28;55.51
73674;BME280;61975;48.660;10.164;2023-06-14T03:16:33;95164.56;;;12.34;55.34
73674;BME280;61975;48.660;10.164;2023-06-14T03:18:59;95159.84;;;12.24;55.56
73674;BME280;61975;48.660;10.164;2023-06-14T03:21:24;95157.50;;;12.16;56.11
73674;BME280;61975;48.660;10.164;2023-06-14T03:23:51;95158.69;;;12.08;56.28
73674;BME280;61975;48.660;10.164;2023-06-14T03:26:18;95163.06;;;12.16;55.97
73674;BME280;61975;48.660;10.164;2023-06-14T03:28:46;95163.13;;;12.02;56.19
73674;BME280;61975;48.660;10.164;2023-06-14T03:31:13;95162.28;;;12.12;55.82
73674;BME280;61975;48.660;10.164;2023-06-14T03:33:39;95165.44;;;12.14;55.79
73674;BME280;61975;48.660;10.164;2023-06-14T03:36:05;95164.25;;;12.11;56.32
73674;BME280;61975;48.660;10.164;2023-06-14T03:38:32;95170.22;;;12.13;56.25
73674;BME280;61975;48.660;10.164;2023-06-14T03:40:57;95165.88;;;12.09;56.82
73674;BME280;61975;48.660;10.164;2023-06-14T03:43:23;95173.44;;;12.05;56.83
73674;BME280;61975;48.660;10.164;2023-06-14T03:45:48;95166.28;;;12.07;56.34
73674;BME280;61975;48.660;10.164;2023-06-14T03:48:14;95173.00;;;12.10;56.54
73674;BME280;61975;48.660;10.164;2023-06-14T03:50:40;95169.44;;;12.13;56.44
73674;BME280;61975;48.660;10.164;2023-06-14T03:53:06;95174.97;;;12.16;55.94
73674;BME280;61975;48.660;10.164;2023-06-14T03:55:31;95182.13;;;12.14;56.40
73674;BME280;61975;48.660;10.164;2023-06-14T03:57:58;95188.50;;;12.11;56.59
73674;BME280;61975;48.660;10.164;2023-06-14T04:00:24;95189.72;;;12.13;56.51
73674;BME280;61975;48.660;10.164;2023-06-14T04:02:49;95192.06;;;12.15;56.17
73674;BME280;61975;48.660;10.164;2023-06-14T04:05:14;95193.22;;;12.21;56.11
73674;BME280;61975;48.660;10.164;2023-06-14T04:07:42;95198.00;;;12.24;55.88
73674;BME280;61975;48.660;10.164;2023-06-14T04:10:13;95193.22;;;12.24;56.18
73674;BME280;61975;48.660;10.164;2023-06-14T04:12:39;95198.78;;;12.21;56.44
73674;BME280;61975;48.660;10.164;2023-06-14T04:15:05;95201.19;;;12.22;56.46
73674;BME280;61975;48.660;10.164;2023-06-14T04:17:32;95200.44;;;12.11;56.65
73674;BME280;61975;48.660;10.164;2023-06-14T04:20:01;95209.16;;;12.20;56.62
73674;BME280;61975;48.660;10.164;2023-06-14T04:22:27;95209.94;;;12.21;56.20
73674;BME280;61975;48.660;10.164;2023-06-14T04:24:54;95211.13;;;12.20;56.51
73674;BME280;61975;48.660;10.164;2023-06-14T04:27:25;95210.00;;;12.10;56.69
73674;BME280;61975;48.660;10.164;2023-06-14T04:29:54;95213.91;;;12.20;56.89
73674;BME280;61975;48.660;10.164;2023-06-14T04:32:27;95215.47;;;12.28;56.17
73674;BME280;61975;48.660;10.164;2023-06-14T04:34:55;95205.09;;;12.35;55.90
73674;BME280;61975;48.660;10.164;2023-06-14T04:37:23;95211.03;;;12.41;55.94
73674;BME280;61975;48.660;10.164;2023-06-14T04:39:49;95209.41;;;12.47;55.78
73674;BME280;61975;48.660;10.164;2023-06-14T04:42:15;95215.00;;;12.47;55.66
73674;BME280;61975;48.660;10.164;2023-06-14T04:44:42;95209.75;;;12.56;55.63
73674;BME280;61975;48.660;10.164;2023-06-14T04:47:11;95218.88;;;12.60;55.77
73674;BME280;61975;48.660;10.164;2023-06-14T04:49:38;95228.78;;;12.68;55.46
73674;BME280;61975;48.660;10.164;2023-06-14T04:52:05;95216.84;;;12.71;54.88
73674;BME280;61975;48.660;10.164;2023-06-14T04:54:31;95218.38;;;12.79;55.52
73674;BME280;61975;48.660;10.164;2023-06-14T04:57:03;95217.53;;;12.85;55.28
73674;BME280;61975;48.660;10.164;2023-06-14T04:59:29;95230.22;;;12.93;55.12
73674;BME280;61975;48.660;10.164;2023-06-14T05:01:58;95234.19;;;12.99;55.16
73674;BME280;61975;48.660;10.164;2023-06-14T05:04:25;95231.78;;;13.05;55.00
73674;BME280;61975;48.660;10.164;2023-06-14T05:06:52;95231.72;;;13.12;54.97
73674;BME280;61975;48.660;10.164;2023-06-14T05:09:20;95232.50;;;13.16;54.72
73674;BME280;61975;48.660;10.164;2023-06-14T05:11:45;95235.22;;;13.23;54.82
73674;BME280;61975;48.660;10.164;2023-06-14T05:14:13;95229.97;;;13.32;54.52
73674;BME280;61975;48.660;10.164;2023-06-14T05:16:38;95231.50;;;13.40;54.62
73674;BME280;61975;48.660;10.164;2023-06-14T05:19:04;95243.38;;;13.47;54.76
73674;BME280;61975;48.660;10.164;2023-06-14T05:21:30;95239.41;;;13.45;53.80
73674;BME280;61975;48.660;10.164;2023-06-14T05:23:57;95233.84;;;13.45;54.33
73674;BME280;61975;48.660;10.164;2023-06-14T05:26:22;95236.09;;;13.60;53.79
73674;BME280;61975;48.660;10.164;2023-06-14T05:28:54;95246.38;;;13.67;53.52
73674;BME280;61975;48.660;10.164;2023-06-14T05:31:22;95251.13;;;13.70;53.97
73674;BME280;61975;48.660;10.164;2023-06-14T05:33:49;95241.50;;;13.78;53.43
73674;BME280;61975;48.660;10.164;2023-06-14T05:36:15;95252.97;;;13.87;54.00
73674;BME280;61975;48.660;10.164;2023-06-14T05:38:40;95248.84;;;14.02;53.60
73674;BME280;61975;48.660;10.164;2023-06-14T05:41:06;95244.28;;;14.15;53.35
73674;BME280;61975;48.660;10.164;2023-06-14T05:43:31;95237.06;;;14.21;53.47
73674;BME280;61975;48.660;10.164;2023-06-14T05:45:57;95249.31;;;14.34;52.56
73674;BME280;61975;48.660;10.164;2023-06-14T05:48:22;95252.78;;;14.42;52.76
73674;BME280;61975;48.660;10.164;2023-06-14T05:50:47;95245.88;;;14.53;52.43
73674;BME280;61975;48.660;10.164;2023-06-14T05:53:13;95238.19;;;14.61;52.38
73674;BME280;61975;48.660;10.164;2023-06-14T05:55:38;95242.03;;;14.74;52.21
73674;BME280;61975;48.660;10.164;2023-06-14T05:58:04;95237.88;;;14.85;52.08
73674;BME280;61975;48.660;10.164;2023-06-14T06:00:29;95243.00;;;14.90;52.20
73674;BME280;61975;48.660;10.164;2023-06-14T06:02:54;95249.69;;;14.96;51.85
73674;BME280;61975;48.660;10.164;2023-06-14T06:05:23;95248.09;;;14.95;51.51
73674;BME280;61975;48.660;10.164;2023-06-14T06:07:48;95252.22;;;15.14;51.36
73674;BME280;61975;48.660;10.164;2023-06-14T06:10:14;95254.25;;;15.13;51.24
73674;BME280;61975;48.660;10.164;2023-06-14T06:12:41;95252.50;;;15.23;50.76
73674;BME280;61975;48.660;10.164;2023-06-14T06:15:07;95251.25;;;15.27;50.85
73674;BME280;61975;48.660;10.164;2023-06-14T06:17:33;95258.63;;;15.41;50.86
73674;BME280;61975;48.660;10.164;2023-06-14T06:19:58;95255.59;;;15.55;50.61
73674;BME280;61975;48.660;10.164;2023-06-14T06:22:24;95255.78;;;15.67;51.05
73674;BME280;61975;48.660;10.164;2023-06-14T06:24:49;95260.81;;;15.79;50.46
73674;BME280;61975;48.660;10.164;2023-06-14T06:27:15;95263.78;;;15.92;50.27
73674;BME280;61975;48.660;10.164;2023-06-14T06:29:42;95269.25;;;15.99;50.13
73674;BME280;61975;48.660;10.164;2023-06-14T06:32:08;95260.22;;;16.11;49.94
73674;BME280;61975;48.660;10.164;2023-06-14T06:34:34;95264.84;;;16.21;49.47
73674;BME280;61975;48.660;10.164;2023-06-14T06:37:01;95257.44;;;16.30;49.75
73674;BME280;61975;48.660;10.164;2023-06-14T06:39:26;95258.53;;;16.36;49.74
73674;BME280;61975;48.660;10.164;2023-06-14T06:41:51;95258.66;;;16.53;49.38
73674;BME280;61975;48.660;10.164;2023-06-14T06:44:17;95256.50;;;16.60;49.40
73674;BME280;61975;48.660;10.164;2023-06-14T06:46:43;95264.69;;;16.71;49.34
73674;BME280;61975;48.660;10.164;2023-06-14T06:49:09;95268.78;;;16.86;48.38
73674;BME280;61975;48.660;10.164;2023-06-14T06:51:37;95262.31;;;16.89;48.59
73674;BME280;61975;48.660;10.164;2023-06-14T06:54:02;95266.56;;;16.97;47.63
73674;BME280;61975;48.660;10.164;2023-06-14T06:56:28;95273.16;;;17.06;47.81
73674;BME280;61975;48.660;10.164;2023-06-14T06:58:53;95272.84;;;17.20;47.92
73674;BME280;61975;48.660;10.164;2023-06-14T07:01:19;95274.19;;;17.32;46.93
73674;BME280;61975;48.660;10.164;2023-06-14T07:03:45;95274.47;;;17.37;47.27
73674;BME280;61975;48.660;10.164;2023-06-14T07:06:11;95278.81;;;17.42;46.95
73674;BME280;61975;48.660;10.164;2023-06-14T07:08:37;95281.78;;;17.51;46.99
73674;BME280;61975;48.660;10.164;2023-06-14T07:11:05;95285.03;;;17.49;46.08
73674;BME280;61975;48.660;10.164;2023-06-14T07:13:31;95276.69;;;17.62;45.81
73674;BME280;61975;48.660;10.164;2023-06-14T07:15:59;95284.94;;;17.69;45.58
73674;BME280;61975;48.660;10.164;2023-06-14T07:18:26;95285.50;;;17.80;45.80
73674;BME280;61975;48.660;10.164;2023-06-14T07:20:52;95285.31;;;17.71;45.68
73674;BME280;61975;48.660;10.164;2023-06-14T07:23:19;95297.25;;;17.75;45.93
73674;BME280;61975;48.660;10.164;2023-06-14T07:25:45;95291.47;;;17.82;46.18
73674;BME280;61975;48.660;10.164;2023-06-14T07:28:10;95294.44;;;17.91;46.38
73674;BME280;61975;48.660;10.164;2023-06-14T07:30:36;95292.16;;;18.02;46.42
73674;BME280;61975;48.660;10.164;2023-06-14T07:33:01;95294.69;;;18.12;46.24
73674;BME280;61975;48.660;10.164;2023-06-14T07:35:26;95300.84;;;18.23;46.13
73674;BME280;61975;48.660;10.164;2023-06-14T07:37:52;95308.13;;;18.21;45.82
73674;BME280;61975;48.660;10.164;2023-06-14T07:40:17;95305.50;;;18.14;45.92
73674;BME280;61975;48.660;10.164;2023-06-14T07:42:43;95303.47;;;18.30;46.24
73674;BME280;61975;48.660;10.164;2023-06-14T07:45:09;95306.19;;;18.34;46.35
73674;BME280;61975;48.660;10.164;2023-06-14T07:47:34;95304.34;;;18.43;45.73
73674;BME280;61975;48.660;10.164;2023-06-14T07:50:00;95311.56;;;18.44;45.83
73674;BME280;61975;48.660;10.164;2023-06-14T07:52:25;95310.75;;;18.44;45.68
73674;BME280;61975;48.660;10.164;2023-06-14T07:54:51;95308.38;;;18.42;46.37
73674;BME280;61975;48.660;10.164;2023-06-14T07:57:16;95316.69;;;18.62;46.08
73674;BME280;61975;48.660;10.164;2023-06-14T07:59:42;95314.28;;;18.76;45.77
73674;BME280;61975;48.660;10.164;2023-06-14T08:02:07;95303.97;;;18.86;45.65
73674;BME280;61975;48.660;10.164;2023-06-14T08:04:32;95303.97;;;18.86;44.93
73674;BME280;61975;48.660;10.164;2023-06-14T08:07:01;95312.66;;;18.91;44.09
73674;BME280;61975;48.660;10.164;2023-06-14T08:09:27;95310.88;;;18.97;43.67
73674;BME280;61975;48.660;10.164;2023-06-14T08:11:54;95316.38;;;19.01;43.61
73674;BME280;61975;48.660;10.164;2023-06-14T08:14:20;95311.47;;;19.05;43.32
73674;BME280;61975;48.660;10.164;2023-06-14T08:16:45;95315.81;;;18.93;42.36
73674;BME280;61975;48.660;10.164;2023-06-14T08:19:10;95306.81;;;18.98;41.88
73674;BME280;61975;48.660;10.164;2023-06-14T08:21:36;95308.44;;;19.12;41.85
73674;BME280;61975;48.660;10.164;2023-06-14T08:24:02;95314.66;;;19.20;42.84
73674;BME280;61975;48.660;10.164;2023-06-14T08:26:27;95314.03;;;19.28;42.89
73674;BME280;61975;48.660;10.164;2023-06-14T08:28:57;95319.34;;;19.39;42.24
73674;BME280;61975;48.660;10.164;2023-06-14T08:31:23;95318.00;;;19.43;41.84
73674;BME280;61975;48.660;10.164;2023-06-14T08:33:49;95319.22;;;19.42;41.23
73674;BME280;61975;48.660;10.164;2023-06-14T08:36:15;95313.81;;;19.35;40.28
73674;BME280;61975;48.660;10.164;2023-06-14T08:38:41;95310.53;;;19.37;40.69
73674;BME280;61975;48.660;10.164;2023-06-14T08:41:06;95316.97;;;19.37;41.91
73674;BME280;61975;48.660;10.164;2023-06-14T08:43:33;95315.41;;;19.49;42.85
73674;BME280;61975;48.660;10.164;2023-06-14T08:46:00;95314.31;;;19.46;41.40
73674;BME280;61975;48.660;10.164;2023-06-14T08:48:27;95313.84;;;19.60;40.61
73674;BME280;61975;48.660;10.164;2023-06-14T08:50:56;95318.03;;;19.56;40.09
73674;BME280;61975;48.660;10.164;2023-06-14T08:53:28;95316.19;;;19.49;40.23
73674;BME280;61975;48.660;10.164;2023-06-14T08:55:57;95320.72;;;19.59;41.41
73674;BME280;61975;48.660;10.164;2023-06-14T08:58:25;95321.38;;;19.51;41.84
73674;BME280;61975;48.660;10.164;2023-06-14T09:00:50;95314.19;;;19.62;41.20
73674;BME280;61975;48.660;10.164;2023-06-14T09:03:18;95322.19;;;19.76;41.19
73674;BME280;61975;48.660;10.164;2023-06-14T09:05:45;95324.78;;;19.83;41.36
73674;BME280;61975;48.660;10.164;2023-06-14T09:08:11;95321.06;;;19.86;41.76
73674;BME280;61975;48.660;10.164;2023-06-14T09:10:36;95335.72;;;19.81;41.22
73674;BME280;61975;48.660;10.164;2023-06-14T09:13:03;95319.38;;;19.89;41.15
73674;BME280;61975;48.660;10.164;2023-06-14T09:15:30;95325.56;;;19.96;40.79
73674;BME280;61975;48.660;10.164;2023-06-14T09:17:55;95324.69;;;19.99;39.47
73674;BME280;61975;48.660;10.164;2023-06-14T09:20:24;95312.53;;;20.15;39.58
73674;BME280;61975;48.660;10.164;2023-06-14T09:22:50;95326.69;;;20.24;40.80
73674;BME280;61975;48.660;10.164;2023-06-14T09:25:16;95324.00;;;20.20;39.70
73674;BME280;61975;48.660;10.164;2023-06-14T09:27:41;95318.25;;;20.24;39.95
73674;BME280;61975;48.660;10.164;2023-06-14T09:30:09;95331.09;;;20.37;40.00
73674;BME280;61975;48.660;10.164;2023-06-14T09:32:41;95333.09;;;20.49;38.41
73674;BME280;61975;48.660;10.164;2023-06-14T09:35:07;95333.84;;;20.62;39.01
73674;BME280;61975;48.660;10.164;2023-06-14T09:37:33;95334.59;;;20.75;39.12
73674;BME280;61975;48.660;10.164;2023-06-14T09:39:59;95333.25;;;20.80;38.78
73674;BME280;61975;48.660;10.164;2023-06-14T09:42:25;95333.91;;;20.84;36.97
73674;BME280;61975;48.660;10.164;2023-06-14T09:44:52;95337.69;;;20.90;37.56
73674;BME280;61975;48.660;10.164;2023-06-14T09:47:19;95333.63;;;21.03;37.66
73674;BME280;61975;48.660;10.164;2023-06-14T09:49:45;95332.00;;;21.15;36.15
73674;BME280;61975;48.660;10.164;2023-06-14T09:52:17;95333.94;;;21.27;36.54
73674;BME280;61975;48.660;10.164;2023-06-14T09:54:43;95327.00;;;21.40;37.66
73674;BME280;61975;48.660;10.164;2023-06-14T09:57:11;95331.44;;;21.50;36.86
73674;BME280;61975;48.660;10.164;2023-06-14T09:59:41;95341.53;;;21.60;36.36
73674;BME280;61975;48.660;10.164;2023-06-14T10:02:11;95326.59;;;21.73;35.59
73674;BME280;61975;48.660;10.164;2023-06-14T10:04:40;95329.66;;;21.87;36.72
73674;BME280;61975;48.660;10.164;2023-06-14T10:07:14;95331.69;;;21.96;35.75
73674;BME280;61975;48.660;10.164;2023-06-14T10:09:44;95333.59;;;21.99;35.44
73674;BME280;61975;48.660;10.164;2023-06-14T10:12:16;95333.59;;;21.99;35.03
73674;BME280;61975;48.660;10.164;2023-06-14T10:14:49;95339.41;;;21.95;35.20
73674;BME280;61975;48.660;10.164;2023-06-14T10:23:11;95330.78;;;21.99;35.29
73674;BME280;61975;48.660;10.164;2023-06-14T10:25:38;95329.91;;;22.11;34.39
73674;BME280;61975;48.660;10.164;2023-06-14T10:28:22;95327.28;;;22.25;34.73
73674;BME280;61975;48.660;10.164;2023-06-14T10:33:32;95322.06;;;22.72;35.46
73674;BME280;61975;48.660;10.164;2023-06-14T10:38:38;95316.75;;;22.92;35.60
73674;BME280;61975;48.660;10.164;2023-06-14T10:41:04;95316.25;;;23.03;34.99
73674;BME280;61975;48.660;10.164;2023-06-14T10:43:30;95318.63;;;22.95;34.72
73674;BME280;61975;48.660;10.164;2023-06-14T10:46:16;95321.91;;;22.85;34.32
73674;BME280;61975;48.660;10.164;2023-06-14T10:48:44;95316.88;;;22.89;34.21
73674;BME280;61975;48.660;10.164;2023-06-14T10:51:20;95322.72;;;22.85;34.08
73674;BME280;61975;48.660;10.164;2023-06-14T10:53:47;95323.47;;;22.86;34.50
73674;BME280;61975;48.660;10.164;2023-06-14T10:56:23;95320.50;;;22.80;34.54
73674;BME280;61975;48.660;10.164;2023-06-14T10:58:52;95324.44;;;22.83;34.90
73674;BME280;61975;48.660;10.164;2023-06-14T11:01:35;95319.72;;;22.80;34.68
73674;BME280;61975;48.660;10.164;2023-06-14T11:04:07;95323.78;;;22.79;34.24
73674;BME280;61975;48.660;10.164;2023-06-14T11:11:49;95329.47;;;22.70;34.10
73674;BME280;61975;48.660;10.164;2023-06-14T11:14:16;95328.63;;;22.51;34.18
73674;BME280;61975;48.660;10.164;2023-06-14T11:16:48;95329.22;;;22.46;34.61
73674;BME280;61975;48.660;10.164;2023-06-14T11:19:13;95327.16;;;22.47;33.33
73674;BME280;61975;48.660;10.164;2023-06-14T11:21:41;95328.41;;;22.37;33.48
73674;BME280;61975;48.660;10.164;2023-06-14T11:24:10;95318.75;;;22.56;33.24
73674;BME280;61975;48.660;10.164;2023-06-14T11:26:37;95324.59;;;22.70;34.39
73674;BME280;61975;48.660;10.164;2023-06-14T11:29:03;95320.84;;;22.91;34.34
73674;BME280;61975;48.660;10.164;2023-06-14T11:31:29;95323.50;;;23.13;34.08
73674;BME280;61975;48.660;10.164;2023-06-14T11:33:59;95326.06;;;23.38;34.24
73674;BME280;61975;48.660;10.164;2023-06-14T11:36:29;95319.72;;;23.52;33.50
73674;BME280;61975;48.660;10.164;2023-06-14T11:39:01;95324.56;;;23.69;34.05
73674;BME280;61975;48.660;10.164;2023-06-14T11:41:37;95319.94;;;23.90;33.39
73674;BME280;61975;48.660;10.164;2023-06-14T11:44:02;95325.44;;;24.02;32.76
73674;BME280;61975;48.660;10.164;2023-06-14T11:46:28;95315.66;;;24.03;32.25
73674;BME280;61975;48.660;10.164;2023-06-14T11:48:54;95321.16;;;24.07;32.08
73674;BME280;61975;48.660;10.164;2023-06-14T11:51:19;95312.34;;;24.05;31.49
73674;BME280;61975;48.660;10.164;2023-06-14T11:53:46;95309.81;;;24.07;31.35
73674;BME280;61975;48.660;10.164;2023-06-14T11:56:12;95311.22;;;24.12;31.95
73674;BME280;61975;48.660;10.164;2023-06-14T11:58:37;95306.47;;;24.18;31.89
73674;BME280;61975;48.660;10.164;2023-06-14T12:01:03;95312.81;;;24.13;32.42
73674;BME280;61975;48.660;10.164;2023-06-14T12:03:29;95312.81;;;24.13;31.53
73674;BME280;61975;48.660;10.164;2023-06-14T12:06:07;95319.25;;;24.13;31.38
73674;BME280;61975;48.660;10.164;2023-06-14T12:08:37;95316.81;;;23.97;32.28
73674;BME280;61975;48.660;10.164;2023-06-14T12:11:07;95308.25;;;24.06;32.29
73674;BME280;61975;48.660;10.164;2023-06-14T12:13:38;95312.16;;;24.08;32.14
73674;BME280;61975;48.660;10.164;2023-06-14T12:16:04;95308.09;;;24.10;32.04
73674;BME280;61975;48.660;10.164;2023-06-14T12:18:37;95306.34;;;24.12;32.13
73674;BME280;61975;48.660;10.164;2023-06-14T12:21:09;95309.31;;;24.18;31.72
73674;BME280;61975;48.660;10.164;2023-06-14T12:23:53;95310.22;;;24.24;32.09
73674;BME280;61975;48.660;10.164;2023-06-14T12:26:19;95312.06;;;24.36;31.60
73674;BME280;61975;48.660;10.164;2023-06-14T12:28:46;95308.25;;;24.39;31.07
73674;BME280;61975;48.660;10.164;2023-06-14T12:31:12;95306.59;;;24.23;31.03
73674;BME280;61975;48.660;10.164;2023-06-14T12:33:39;95315.44;;;24.25;31.40
73674;BME280;61975;48.660;10.164;2023-06-14T12:36:07;95316.81;;;24.30;31.73
73674;BME280;61975;48.660;10.164;2023-06-14T12:38:33;95314.88;;;24.36;31.29
73674;BME280;61975;48.660;10.164;2023-06-14T12:40:58;95314.63;;;24.25;31.15
73674;BME280;61975;48.660;10.164;2023-06-14T12:43:24;95317.16;;;24.23;31.65
73674;BME280;61975;48.660;10.164;2023-06-14T12:45:49;95319.63;;;24.30;32.17
73674;BME280;61975;48.660;10.164;2023-06-14T12:48:15;95324.69;;;24.35;32.19
73674;BME280;61975;48.660;10.164;2023-06-14T12:50:41;95319.84;;;24.17;31.88
73674;BME280;61975;48.660;10.164;2023-06-14T12:53:06;95324.56;;;24.20;32.55
73674;BME280;61975;48.660;10.164;2023-06-14T12:55:32;95325.19;;;24.24;32.52
73674;BME280;61975;48.660;10.164;2023-06-14T12:57:58;95324.34;;;24.33;32.53
73674;BME280;61975;48.660;10.164;2023-06-14T13:00:23;95331.31;;;24.32;32.44
73674;BME280;61975;48.660;10.164;2023-06-14T13:02:51;95328.09;;;24.48;32.68
73674;BME280;61975;48.660;10.164;2023-06-14T13:05:17;95335.25;;;24.67;32.58